createdAt,value
2023-03-25T00:05:01.019Z,10.06
2023-03-25T00:10:08.550Z,10.05
2023-03-25T00:15:17.973Z,10.00
2023-03-25T00:20:25.926Z,9.85
2023-03-25T00:25:36.195Z,9.81
2023-03-25T00:30:43.049Z,9.79
2023-03-25T00:35:54.444Z,9.76
2023-03-25T00:41:00.219Z,9.73
2023-03-25T00:46:06.401Z,9.72
2023-03-25T00:51:14.448Z,9.75
2023-03-25T00:56:20.414Z,9.77
2023-03-25T01:01:28.800Z,9.77
2023-03-25T01:06:38.874Z,9.75
2023-03-25T01:11:47.339Z,9.73
2023-03-25T01:16:53.036Z,9.67
2023-03-25T01:21:58.399Z,9.59
2023-03-25T01:27:04.435Z,9.50
2023-03-25T01:32:09.883Z,9.43
2023-03-25T01:37:15.711Z,9.32
2023-03-25T01:42:21.074Z,9.22
2023-03-25T01:47:27.520Z,9.11
2023-03-25T01:52:33.342Z,9.04
2023-03-25T01:57:44.011Z,8.95
2023-03-25T02:02:50.973Z,8.80
2023-03-25T02:07:59.098Z,8.67
2023-03-25T02:13:06.392Z,8.58
2023-03-25T02:18:27.037Z,8.47
2023-03-25T02:23:48.254Z,8.34
2023-03-25T02:28:56.356Z,8.24
2023-03-25T02:34:29.309Z,8.16
2023-03-25T02:39:41.427Z,8.10
2023-03-25T02:44:55.969Z,8.05
2023-03-25T02:50:07.838Z,7.92
2023-03-25T02:55:17.757Z,7.85
2023-03-25T03:00:28.512Z,7.84
2023-03-25T03:05:36.401Z,7.84
2023-03-25T03:10:52.889Z,7.82
2023-03-25T03:20:35.364Z,7.80
2023-03-25T03:25:51.006Z,7.80
2023-03-25T03:31:07.136Z,7.84
2023-03-25T03:36:17.240Z,7.85
2023-03-25T03:41:27.087Z,7.77
2023-03-25T03:46:36.523Z,7.66
2023-03-25T03:51:47.219Z,7.66
2023-03-25T03:56:57.211Z,7.65
2023-03-25T04:02:06.822Z,7.60
2023-03-25T04:07:17.220Z,7.43
2023-03-25T04:12:25.309Z,7.30
2023-03-25T04:17:33.112Z,7.26
2023-03-25T04:22:39.207Z,7.28
2023-03-25T04:27:49.195Z,7.23
2023-03-25T04:32:55.530Z,7.18
2023-03-25T04:38:01.827Z,7.13
2023-03-25T04:43:08.098Z,7.20
2023-03-25T04:48:21.611Z,7.29
2023-03-25T04:53:27.988Z,7.38
2023-03-25T04:58:33.790Z,7.43
2023-03-25T05:03:40.205Z,7.56
2023-03-25T05:08:45.907Z,7.76
2023-03-25T05:13:51.323Z,8.00
2023-03-25T05:18:56.636Z,8.14
2023-03-25T05:24:02.206Z,8.24
2023-03-25T05:29:10.482Z,8.34
2023-03-25T05:34:17.345Z,8.46
2023-03-25T05:39:24.412Z,8.56
2023-03-25T05:44:30.329Z,8.68
2023-03-25T05:49:35.946Z,8.83
2023-03-25T05:54:42.113Z,8.94
2023-03-25T05:59:48.133Z,9.00
2023-03-25T06:04:54.386Z,9.10
2023-03-25T06:09:59.984Z,9.26
2023-03-25T06:15:07.005Z,9.41
2023-03-25T06:20:19.293Z,9.52
2023-03-25T06:25:26.668Z,9.70
2023-03-25T06:30:32.444Z,9.91
2023-03-25T06:35:38.269Z,10.13
2023-03-25T06:40:43.751Z,10.43
2023-03-25T06:45:53.383Z,10.94
2023-03-25T06:51:09.750Z,11.77
2023-03-25T06:56:17.494Z,12.14
2023-03-25T07:01:24.382Z,12.21
2023-03-25T07:06:32.316Z,12.39
2023-03-25T07:11:38.652Z,13.11
2023-03-25T07:16:44.176Z,14.33
2023-03-25T07:21:49.667Z,14.37
2023-03-25T07:26:55.155Z,14.12
2023-03-25T07:32:03.584Z,13.83
2023-03-25T07:37:09.883Z,14.59
2023-03-25T07:42:15.428Z,16.27
2023-03-25T07:47:42.503Z,17.70
2023-03-25T07:52:48.243Z,18.71
2023-03-25T07:57:54.429Z,18.94
2023-03-25T08:03:00.818Z,19.46
2023-03-25T08:08:08.233Z,21.00
2023-03-25T08:13:13.963Z,21.12
2023-03-25T08:18:19.799Z,21.68
2023-03-25T08:23:26.779Z,23.22
2023-03-25T08:28:33.510Z,25.38
2023-03-25T08:33:41.365Z,27.12
2023-03-25T08:38:47.360Z,28.16
2023-03-25T08:43:53.146Z,26.83
2023-03-25T08:48:58.805Z,26.00
2023-03-25T08:54:04.555Z,26.58
2023-03-25T08:59:12.925Z,28.09
2023-03-25T09:04:18.730Z,29.00
2023-03-25T09:09:24.310Z,29.42
2023-03-25T09:14:30.694Z,29.93
2023-03-25T09:19:38.101Z,30.40
2023-03-25T09:24:43.925Z,30.80
2023-03-25T09:29:49.860Z,30.70
2023-03-25T09:34:55.271Z,29.14
2023-03-25T09:40:00.899Z,28.38
2023-03-25T09:45:22.143Z,28.52
2023-03-25T09:50:34.219Z,28.00
2023-03-25T09:55:44.762Z,26.87
2023-03-25T10:00:56.912Z,25.35
2023-03-25T10:06:18.880Z,24.19
2023-03-25T10:11:34.526Z,23.10
2023-03-25T10:16:50.926Z,22.45
2023-03-25T10:22:03.927Z,22.06
2023-03-25T10:27:17.944Z,21.66
2023-03-25T10:32:31.446Z,21.35
2023-03-25T10:37:42.230Z,21.31
2023-03-25T10:43:10.279Z,21.43
2023-03-25T10:48:22.896Z,21.37
2023-03-25T10:53:30.143Z,21.88
2023-03-25T10:58:38.800Z,23.24
2023-03-25T11:03:46.312Z,23.62
2023-03-25T11:09:13.902Z,24.07
2023-03-25T11:14:24.608Z,24.05
2023-03-25T11:19:36.884Z,23.63
2023-03-25T11:24:48.265Z,23.42
2023-03-25T11:29:57.748Z,23.16
2023-03-25T11:35:15.919Z,22.73
2023-03-25T11:40:22.292Z,22.22
2023-03-25T11:45:35.771Z,21.28
2023-03-25T11:50:52.194Z,21.51
2023-03-25T11:56:04.838Z,21.82
2023-03-25T12:01:24.659Z,22.02
2023-03-25T12:06:30.924Z,21.37
2023-03-25T12:11:42.679Z,20.65
2023-03-25T12:16:57.264Z,20.80
2023-03-25T12:22:17.782Z,21.07
2023-03-25T12:27:34.481Z,21.14
2023-03-25T12:32:50.479Z,20.84
2023-03-25T12:38:13.654Z,20.80
2023-03-25T12:43:25.651Z,21.01
2023-03-25T12:48:56.741Z,21.16
2023-03-25T12:54:12.832Z,20.30
2023-03-25T12:59:50.210Z,19.44
2023-03-25T13:05:14.466Z,18.64
2023-03-25T13:10:21.622Z,17.95
2023-03-25T13:15:31.201Z,17.35
2023-03-25T13:20:41.809Z,16.82
2023-03-25T13:25:53.125Z,16.28
2023-03-25T13:31:01.249Z,15.56
2023-03-25T13:36:16.188Z,14.90
2023-03-25T13:41:26.342Z,14.37
2023-03-25T13:46:36.593Z,14.25
2023-03-25T13:51:42.135Z,14.44
2023-03-25T13:57:12.434Z,14.68
2023-03-25T14:02:36.324Z,14.90
2023-03-25T14:08:13.032Z,14.97
2023-03-25T14:13:22.998Z,15.16
2023-03-25T14:18:32.152Z,15.18
2023-03-25T14:23:38.020Z,15.22
2023-03-25T14:28:47.861Z,15.39
2023-03-25T14:34:20.396Z,15.60
2023-03-25T14:39:40.467Z,15.86
2023-03-25T14:44:54.826Z,15.98
2023-03-25T14:50:34.314Z,15.79
2023-03-25T14:55:46.544Z,15.33
2023-03-25T15:00:58.655Z,15.13
2023-03-25T15:06:09.265Z,15.02
2023-03-25T15:11:18.351Z,14.74
2023-03-25T15:16:34.371Z,14.44
2023-03-25T15:22:17.624Z,14.17
2023-03-25T15:27:39.503Z,13.69
2023-03-25T15:32:54.984Z,13.24
2023-03-25T15:38:24.800Z,12.80
2023-03-25T15:44:02.264Z,12.45
2023-03-25T15:49:29.354Z,12.07
2023-03-25T15:54:40.478Z,11.73
2023-03-25T15:59:51.470Z,11.39
2023-03-25T16:04:57.277Z,11.11
2023-03-25T16:10:14.977Z,10.92
2023-03-25T16:15:27.221Z,10.74
2023-03-25T16:20:35.475Z,10.57
2023-03-25T16:25:42.593Z,10.42
2023-03-25T16:30:53.419Z,10.32
2023-03-25T16:35:59.503Z,10.23
2023-03-25T16:41:10.640Z,10.10
2023-03-25T16:46:20.032Z,9.92
2023-03-25T16:51:29.393Z,9.77
2023-03-25T16:56:39.182Z,9.62
2023-03-25T17:01:52.315Z,9.50
2023-03-25T17:07:01.706Z,9.44
2023-03-25T17:12:15.534Z,9.38
2023-03-25T17:17:33.811Z,9.26
2023-03-25T17:22:40.140Z,9.12
2023-03-25T17:27:47.661Z,8.98
2023-03-25T17:32:53.277Z,8.90
2023-03-25T17:37:59.809Z,8.86
2023-03-25T17:43:05.463Z,8.82
2023-03-25T17:48:18.873Z,8.75
2023-03-25T17:53:24.860Z,8.67
2023-03-25T17:58:31.291Z,8.60
2023-03-25T18:03:37.383Z,8.57
2023-03-25T18:08:43.018Z,8.56
2023-03-25T18:13:48.772Z,8.58
2023-03-25T18:18:54.468Z,8.56
2023-03-25T18:23:59.802Z,8.54
2023-03-25T18:29:09.861Z,8.59
2023-03-25T18:34:15.762Z,8.70
2023-03-25T18:39:25.564Z,8.81
2023-03-25T18:44:31.026Z,8.87
2023-03-25T18:49:36.371Z,8.88
2023-03-25T18:54:41.922Z,8.92
2023-03-25T18:59:47.472Z,8.98
2023-03-25T19:05:00.786Z,9.03
2023-03-25T19:10:11.823Z,9.04
2023-03-25T19:15:19.320Z,9.04
2023-03-25T19:20:29.826Z,9.03
2023-03-25T19:25:36.958Z,9.05
2023-03-25T19:30:44.030Z,9.05
2023-03-25T19:35:58.227Z,9.02
2023-03-25T19:41:07.143Z,8.96
2023-03-25T19:46:12.589Z,8.91
2023-03-25T19:51:18.228Z,8.92
2023-03-25T19:56:23.969Z,8.95
2023-03-25T20:01:29.593Z,8.92
2023-03-25T20:06:37.186Z,8.82
2023-03-25T20:11:42.825Z,8.67
2023-03-25T20:16:48.336Z,8.49
2023-03-25T20:21:54.057Z,8.35
2023-03-25T20:26:59.896Z,8.28
2023-03-25T20:32:06.462Z,8.24
2023-03-25T20:37:12.132Z,8.14
2023-03-25T20:42:17.681Z,8.01
2023-03-25T20:47:23.161Z,7.92
2023-03-25T20:52:28.999Z,7.85
2023-03-25T20:57:34.925Z,7.85
2023-03-25T21:02:41.455Z,7.93
2023-03-25T21:07:48.383Z,8.02
2023-03-25T21:12:53.744Z,8.07
2023-03-25T21:17:59.762Z,8.04
2023-03-25T21:23:07.134Z,8.01
2023-03-25T21:28:13.097Z,8.01
2023-03-25T21:33:18.560Z,7.99
2023-03-25T21:38:28.790Z,7.94
2023-03-25T21:43:39.720Z,7.86
2023-03-25T21:48:46.889Z,7.77
2023-03-25T21:53:52.847Z,7.74
2023-03-25T21:58:58.733Z,7.77
2023-03-25T22:04:04.359Z,7.83
2023-03-25T22:09:10.227Z,7.83
2023-03-25T22:14:15.871Z,7.80
2023-03-25T22:19:24.401Z,7.80
2023-03-25T22:24:30.752Z,7.84
2023-03-25T22:29:37.641Z,7.86
2023-03-25T22:34:43.217Z,7.88
2023-03-25T22:39:50.436Z,7.93
2023-03-25T22:44:55.818Z,8.01
2023-03-25T22:50:01.447Z,8.08
2023-03-25T22:55:08.549Z,8.08
2023-03-25T23:00:15.903Z,7.99
2023-03-25T23:05:21.380Z,7.88
2023-03-25T23:10:26.993Z,7.84
2023-03-25T23:15:32.428Z,7.79
2023-03-25T23:20:37.913Z,7.74
2023-03-25T23:25:43.255Z,7.71
2023-03-25T23:30:48.690Z,7.70
2023-03-25T23:35:58.016Z,7.65
2023-03-25T23:41:06.660Z,7.60
2023-03-25T23:46:13.638Z,7.56
2023-03-25T23:51:22.697Z,7.58
2023-03-25T23:56:28.985Z,7.62
